sensor_id;sensor_type;location;lat;lon;timestamp;pressure;altitude;pressure_sealevel;temperature;humidity
18678;BME280;9469;51.114;13.914;2023-04-06T00:00:57;99236.44;;;1.65;100.00
18678;BME280;9469;51.114;13.914;2023-04-06T00:06:03;99236.00;;;1.57;100.00
18678;BME280;9469;51.114;13.914;2023-04-06T00:11:12;99227.69;;;1.36;100.00
18678;BME280;9469;51.114;13.914;2023-04-06T00:16:21;99226.41;;;1.04;100.00
18678;BME280;9469;51.114;13.914;2023-04-06T00:21:33;99227.84;;;0.89;100.00
18678;BME280;9469;51.114;13.914;2023-04-06T00:26:39;99231.53;;;0.99;100.00
18678;BME280;9469;51.114;13.914;2023-04-06T00:31:48;99226.31;;;1.22;100.00
18678;BME280;9469;51.114;13.914;2023-04-06T00:36:55;99214.50;;;1.20;100.00
18678;BME280;9469;51.114;13.914;2023-04-06T00:42:07;99223.34;;;1.19;100.00
18678;BME280;9469;51.114;13.914;2023-04-06T00:47:18;99220.97;;;1.06;100.00
18678;BME280;9469;51.114;13.914;2023-04-06T00:52:24;99226.22;;;1.17;100.00
18678;BME280;9469;51.114;13.914;2023-04-06T00:57:31;99219.03;;;1.59;100.00
18678;BME280;9469;51.114;13.914;2023-04-06T01:02:39;99227.78;;;2.28;99.48
18678;BME280;9469;51.114;13.914;2023-04-06T01:07:45;99220.03;;;2.33;96.64
18678;BME280;9469;51.114;13.914;2023-04-06T01:12:55;99221.97;;;2.54;95.34
18678;BME280;9469;51.114;13.914;2023-04-06T01:18:29;99220.75;;;2.16;96.80
18678;BME280;9469;51.114;13.914;2023-04-06T01:24:03;99210.00;;;2.18;97.32
18678;BME280;9469;51.114;13.914;2023-04-06T01:29:27;99207.72;;;2.22;96.96
18678;BME280;9469;51.114;13.914;2023-04-06T01:34:36;99220.00;;;1.93;98.32
18678;BME280;9469;51.114;13.914;2023-04-06T01:39:45;99214.03;;;1.58;100.00
18678;BME280;9469;51.114;13.914;2023-04-06T01:45:00;99206.84;;;1.53;100.00
18678;BME280;9469;51.114;13.914;2023-04-06T01:50:07;99203.53;;;1.46;100.00
18678;BME280;9469;51.114;13.914;2023-04-06T01:55:20;99207.84;;;1.52;100.00
18678;BME280;9469;51.114;13.914;2023-04-06T02:00:52;99203.53;;;1.69;100.00
18678;BME280;9469;51.114;13.914;2023-04-06T02:05:59;99207.28;;;1.62;100.00
18678;BME280;9469;51.114;13.914;2023-04-06T02:11:13;99209.34;;;1.48;100.00
18678;BME280;9469;51.114;13.914;2023-04-06T02:16:22;99223.88;;;0.98;100.00
18678;BME280;9469;51.114;13.914;2023-04-06T02:21:28;99213.53;;;0.91;100.00
18678;BME280;9469;51.114;13.914;2023-04-06T02:26:37;99199.63;;;0.91;100.00
18678;BME280;9469;51.114;13.914;2023-04-06T02:31:44;99212.81;;;0.84;100.00
18678;BME280;9469;51.114;13.914;2023-04-06T02:36:49;99205.09;;;0.89;100.00
18678;BME280;9469;51.114;13.914;2023-04-06T02:41:58;99207.50;;;0.49;100.00
18678;BME280;9469;51.114;13.914;2023-04-06T02:47:04;99206.00;;;0.42;100.00
18678;BME280;9469;51.114;13.914;2023-04-06T02:52:11;99208.66;;;0.53;100.00
18678;BME280;9469;51.114;13.914;2023-04-06T02:57:19;99204.06;;;0.79;100.00
18678;BME280;9469;51.114;13.914;2023-04-06T03:02:28;99206.34;;;0.87;100.00
18678;BME280;9469;51.114;13.914;2023-04-06T03:07:42;99196.84;;;0.62;100.00
18678;BME280;9469;51.114;13.914;2023-04-06T03:12:58;99210.78;;;0.75;100.00
18678;BME280;9469;51.114;13.914;2023-04-06T03:18:25;99204.13;;;0.60;100.00
18678;BME280;9469;51.114;13.914;2023-04-06T03:23:32;99207.81;;;0.83;100.00
18678;BME280;9469;51.114;13.914;2023-04-06T03:28:41;99196.84;;;0.62;100.00
18678;BME280;9469;51.114;13.914;2023-04-06T03:33:49;99193.63;;;0.49;100.00
18678;BME280;9469;51.114;13.914;2023-04-06T03:39:06;99204.19;;;0.42;100.00
18678;BME280;9469;51.114;13.914;2023-04-06T03:44:17;99216.81;;;0.45;100.00
18678;BME280;9469;51.114;13.914;2023-04-06T03:49:27;99224.41;;;0.65;100.00
18678;BME280;9469;51.114;13.914;2023-04-06T03:54:33;99216.19;;;0.02;100.00
18678;BME280;9469;51.114;13.914;2023-04-06T03:59:43;99213.03;;;0.41;100.00
18678;BME280;9469;51.114;13.914;2023-04-06T04:04:48;99228.38;;;0.08;100.00
18678;BME280;9469;51.114;13.914;2023-04-06T04:09:54;99226.75;;;0.07;100.00
18678;BME280;9469;51.114;13.914;2023-04-06T04:15:04;99225.59;;;0.03;100.00
18678;BME280;9469;51.114;13.914;2023-04-06T04:20:15;99226.56;;;-0.10;100.00
18678;BME280;9469;51.114;13.914;2023-04-06T04:25:24;99239.13;;;0.00;100.00
18678;BME280;9469;51.114;13.914;2023-04-06T04:30:32;99226.75;;;0.07;100.00
18678;BME280;9469;51.114;13.914;2023-04-06T04:35:42;99232.84;;;0.19;100.00
18678;BME280;9469;51.114;13.914;2023-04-06T04:41:01;99232.34;;;0.29;100.00
18678;BME280;9469;51.114;13.914;2023-04-06T04:46:12;99241.88;;;-0.13;100.00
18678;BME280;9469;51.114;13.914;2023-04-06T04:51:18;99231.34;;;0.71;100.00
18678;BME280;9469;51.114;13.914;2023-04-06T04:56:38;99236.47;;;3.18;91.83
18678;BME280;9469;51.114;13.914;2023-04-06T05:02:00;99221.00;;;3.76;85.61
18678;BME280;9469;51.114;13.914;2023-04-06T05:07:16;99225.81;;;4.22;82.15
18678;BME280;9469;51.114;13.914;2023-04-06T05:12:25;99226.31;;;4.73;77.39
18678;BME280;9469;51.114;13.914;2023-04-06T05:17:42;99225.44;;;4.14;77.59
18678;BME280;9469;51.114;13.914;2023-04-06T05:22:53;99219.84;;;6.88;71.99
18678;BME280;9469;51.114;13.914;2023-04-06T05:27:59;99221.63;;;7.78;67.14
18678;BME280;9469;51.114;13.914;2023-04-06T05:33:12;99214.63;;;11.72;56.45
18678;BME280;9469;51.114;13.914;2023-04-06T05:38:31;99219.00;;;11.17;54.95
18678;BME280;9469;51.114;13.914;2023-04-06T05:43:47;99224.47;;;10.38;57.78
18678;BME280;9469;51.114;13.914;2023-04-06T05:48:57;99249.84;;;6.31;68.12
18678;BME280;9469;51.114;13.914;2023-04-06T05:54:08;99237.00;;;6.60;66.51
18678;BME280;9469;51.114;13.914;2023-04-06T05:59:18;99242.34;;;7.51;63.06
18678;BME280;9469;51.114;13.914;2023-04-06T06:04:27;99226.50;;;8.25;64.61
18678;BME280;9469;51.114;13.914;2023-04-06T06:09:34;99228.84;;;12.36;55.98
18678;BME280;9469;51.114;13.914;2023-04-06T06:14:52;99222.69;;;13.20;53.52
18678;BME280;9469;51.114;13.914;2023-04-06T06:20:30;99234.38;;;12.53;52.79
18678;BME280;9469;51.114;13.914;2023-04-06T06:25:39;99227.41;;;14.15;51.88
18678;BME280;9469;51.114;13.914;2023-04-06T06:30:48;99225.47;;;13.99;51.89
18678;BME280;9469;51.114;13.914;2023-04-06T06:36:00;99235.16;;;11.85;54.00
18678;BME280;9469;51.114;13.914;2023-04-06T06:41:05;99233.53;;;12.66;54.07
18678;BME280;9469;51.114;13.914;2023-04-06T06:46:12;99221.97;;;13.28;53.16
18678;BME280;9469;51.114;13.914;2023-04-06T06:51:23;99230.66;;;13.95;52.17
18678;BME280;9469;51.114;13.914;2023-04-06T06:56:29;99239.19;;;12.51;54.08
18678;BME280;9469;51.114;13.914;2023-04-06T07:01:39;99253.25;;;10.92;56.76
18678;BME280;9469;51.114;13.914;2023-04-06T07:06:47;99237.06;;;12.26;54.95
18678;BME280;9469;51.114;13.914;2023-04-06T07:11:59;99234.44;;;13.41;53.13
18678;BME280;9469;51.114;13.914;2023-04-06T07:17:06;99228.59;;;13.92;51.06
18678;BME280;9469;51.114;13.914;2023-04-06T07:22:15;99222.63;;;15.92;48.83
18678;BME280;9469;51.114;13.914;2023-04-06T07:27:25;99226.13;;;17.13;47.20
18678;BME280;9469;51.114;13.914;2023-04-06T07:32:46;99211.84;;;18.63;43.40
18678;BME280;9469;51.114;13.914;2023-04-06T07:37:54;99225.91;;;17.96;44.25
18678;BME280;9469;51.114;13.914;2023-04-06T07:43:04;99237.56;;;12.41;50.51
18678;BME280;9469;51.114;13.914;2023-04-06T07:48:16;99237.25;;;12.15;49.13
18678;BME280;9469;51.114;13.914;2023-04-06T07:53:28;99225.03;;;13.00;51.16
18678;BME280;9469;51.114;13.914;2023-04-06T07:58:35;99227.97;;;13.64;49.36
18678;BME280;9469;51.114;13.914;2023-04-06T08:03:43;99227.25;;;13.20;50.16
18678;BME280;9469;51.114;13.914;2023-04-06T08:08:57;99242.50;;;11.93;50.84
18678;BME280;9469;51.114;13.914;2023-04-06T08:14:12;99243.66;;;12.42;49.63
18678;BME280;9469;51.114;13.914;2023-04-06T08:19:38;99247.03;;;12.06;51.55
18678;BME280;9469;51.114;13.914;2023-04-06T08:24:46;99243.09;;;12.04;49.92
18678;BME280;9469;51.114;13.914;2023-04-06T08:29:53;99238.03;;;11.43;48.46
18678;BME280;9469;51.114;13.914;2023-04-06T08:35:01;99236.28;;;11.52;48.33
18678;BME280;9469;51.114;13.914;2023-04-06T08:40:12;99244.25;;;12.52;46.94
18678;BME280;9469;51.114;13.914;2023-04-06T08:45:19;99232.88;;;12.82;46.84
18678;BME280;9469;51.114;13.914;2023-04-06T08:50:26;99236.00;;;12.62;47.01
18678;BME280;9469;51.114;13.914;2023-04-06T08:55:37;99235.00;;;11.95;47.66
18678;BME280;9469;51.114;13.914;2023-04-06T09:00:52;99239.41;;;12.41;46.59
18678;BME280;9469;51.114;13.914;2023-04-06T09:05:58;99227.69;;;13.13;44.60
18678;BME280;9469;51.114;13.914;2023-04-06T09:11:09;99232.94;;;12.69;46.02
18678;BME280;9469;51.114;13.914;2023-04-06T09:16:17;99224.66;;;15.32;42.40
18678;BME280;9469;51.114;13.914;2023-04-06T09:21:30;99222.59;;;12.89;45.51
18678;BME280;9469;51.114;13.914;2023-04-06T09:26:47;99204.19;;;15.27;40.81
18678;BME280;9469;51.114;13.914;2023-04-06T09:32:02;99227.28;;;12.35;44.43
18678;BME280;9469;51.114;13.914;2023-04-06T09:37:14;99203.13;;;13.33;43.76
18678;BME280;9469;51.114;13.914;2023-04-06T09:42:32;99202.84;;;16.34;39.48
18678;BME280;9469;51.114;13.914;2023-04-06T09:47:42;99204.50;;;12.51;42.54
18678;BME280;9469;51.114;13.914;2023-04-06T09:52:54;99205.03;;;12.75;43.68
18678;BME280;9469;51.114;13.914;2023-04-06T09:58:06;99191.31;;;12.32;42.43
18678;BME280;9469;51.114;13.914;2023-04-06T10:03:18;99195.03;;;13.47;43.27
18678;BME280;9469;51.114;13.914;2023-04-06T10:08:28;99189.28;;;12.51;42.15
18678;BME280;9469;51.114;13.914;2023-04-06T10:13:40;99201.59;;;11.25;44.20
18678;BME280;9469;51.114;13.914;2023-04-06T10:18:53;99198.84;;;12.16;44.46
18678;BME280;9469;51.114;13.914;2023-04-06T10:24:08;99194.00;;;12.18;45.19
18678;BME280;9469;51.114;13.914;2023-04-06T10:29:26;99195.00;;;10.71;44.13
18678;BME280;9469;51.114;13.914;2023-04-06T10:34:35;99187.19;;;11.72;45.48
18678;BME280;9469;51.114;13.914;2023-04-06T10:39:46;99182.34;;;11.60;47.29
18678;BME280;9469;51.114;13.914;2023-04-06T10:45:07;99191.00;;;11.66;47.43
18678;BME280;9469;51.114;13.914;2023-04-06T10:50:18;99190.97;;;11.06;45.32
18678;BME280;9469;51.114;13.914;2023-04-06T10:55:26;99189.34;;;12.10;46.72
18678;BME280;9469;51.114;13.914;2023-04-06T11:00:35;99181.47;;;13.13;46.45
18678;BME280;9469;51.114;13.914;2023-04-06T11:05:51;99184.03;;;12.60;46.98
18678;BME280;9469;51.114;13.914;2023-04-06T11:11:11;99177.69;;;11.66;46.82
18678;BME280;9469;51.114;13.914;2023-04-06T11:16:30;99169.06;;;13.17;45.63
18678;BME280;9469;51.114;13.914;2023-04-06T11:21:37;99171.81;;;11.96;46.19
18678;BME280;9469;51.114;13.914;2023-04-06T11:26:47;99165.28;;;12.73;45.80
18678;BME280;9469;51.114;13.914;2023-04-06T11:32:03;99167.06;;;11.93;46.31
18678;BME280;9469;51.114;13.914;2023-04-06T11:37:12;99172.28;;;10.93;47.25
18678;BME280;9469;51.114;13.914;2023-04-06T11:42:27;99156.28;;;11.11;47.29
18678;BME280;9469;51.114;13.914;2023-04-06T11:47:37;99151.78;;;11.85;47.02
18678;BME280;9469;51.114;13.914;2023-04-06T11:52:46;99145.03;;;12.94;44.50
18678;BME280;9469;51.114;13.914;2023-04-06T11:58:02;99151.44;;;12.00;44.90
18678;BME280;9469;51.114;13.914;2023-04-06T12:03:15;99143.56;;;11.68;45.89
18678;BME280;9469;51.114;13.914;2023-04-06T12:08:22;99137.03;;;11.74;46.37
18678;BME280;9469;51.114;13.914;2023-04-06T12:18:51;99114.16;;;13.63;43.65
18678;BME280;9469;51.114;13.914;2023-04-06T12:24:01;99119.56;;;12.88;44.90
18678;BME280;9469;51.114;13.914;2023-04-06T12:29:09;99115.38;;;13.57;42.03
18678;BME280;9469;51.114;13.914;2023-04-06T12:34:20;99114.19;;;13.41;42.88
18678;BME280;9469;51.114;13.914;2023-04-06T12:39:28;99103.84;;;13.09;43.19
18678;BME280;9469;51.114;13.914;2023-04-06T12:44:35;99092.72;;;14.46;43.74
18678;BME280;9469;51.114;13.914;2023-04-06T12:49:44;99105.00;;;12.50;43.84
18678;BME280;9469;51.114;13.914;2023-04-06T12:54:49;99102.25;;;12.42;46.14
18678;BME280;9469;51.114;13.914;2023-04-06T12:59:59;99088.22;;;13.03;44.70
18678;BME280;9469;51.114;13.914;2023-04-06T13:05:16;99101.69;;;11.95;45.26
18678;BME280;9469;51.114;13.914;2023-04-06T13:10:23;99100.13;;;11.67;45.96
18678;BME280;9469;51.114;13.914;2023-04-06T13:15:31;99089.09;;;10.87;48.02
18678;BME280;9469;51.114;13.914;2023-04-06T13:20:41;99089.28;;;10.91;47.91
18678;BME280;9469;51.114;13.914;2023-04-06T13:25:59;99092.47;;;11.06;47.87
18678;BME280;9469;51.114;13.914;2023-04-06T13:31:06;99090.47;;;11.44;46.91
18678;BME280;9469;51.114;13.914;2023-04-06T13:36:18;99087.50;;;11.59;46.99
18678;BME280;9469;51.114;13.914;2023-04-06T13:41:26;99085.88;;;11.17;46.07
18678;BME280;9469;51.114;13.914;2023-04-06T13:46:34;99074.41;;;10.90;46.48
18678;BME280;9469;51.114;13.914;2023-04-06T13:51:44;99077.19;;;12.07;44.84
18678;BME280;9469;51.114;13.914;2023-04-06T13:56:51;99062.72;;;12.66;43.96
18678;BME280;9469;51.114;13.914;2023-04-06T14:02:08;99054.63;;;12.13;44.47
18678;BME280;9469;51.114;13.914;2023-04-06T14:07:23;99050.81;;;12.05;45.50
18678;BME280;9469;51.114;13.914;2023-04-06T14:12:30;99059.56;;;11.29;45.70
18678;BME280;9469;51.114;13.914;2023-04-06T14:17:36;99047.13;;;11.38;46.04
18678;BME280;9469;51.114;13.914;2023-04-06T14:22:47;99051.66;;;11.24;46.38
18678;BME280;9469;51.114;13.914;2023-04-06T14:27:56;99051.53;;;11.97;45.48
18678;BME280;9469;51.114;13.914;2023-04-06T14:33:01;99043.59;;;11.70;46.13
18678;BME280;9469;51.114;13.914;2023-04-06T14:38:10;99047.13;;;11.11;46.11
18678;BME280;9469;51.114;13.914;2023-04-06T14:43:17;99052.09;;;10.86;46.15
18678;BME280;9469;51.114;13.914;2023-04-06T14:48:25;99053.66;;;11.19;46.53
18678;BME280;9469;51.114;13.914;2023-04-06T14:53:37;99036.88;;;12.08;44.94
18678;BME280;9469;51.114;13.914;2023-04-06T14:58:45;99032.03;;;11.61;46.21
18678;BME280;9469;51.114;13.914;2023-04-06T15:03:50;99047.84;;;11.71;46.05
18678;BME280;9469;51.114;13.914;2023-04-06T15:09:01;99035.59;;;11.70;45.44
18678;BME280;9469;51.114;13.914;2023-04-06T15:14:09;99034.19;;;11.59;45.53
18678;BME280;9469;51.114;13.914;2023-04-06T15:19:18;99028.25;;;11.89;45.36
18678;BME280;9469;51.114;13.914;2023-04-06T15:24:26;99041.00;;;11.11;47.22
18678;BME280;9469;51.114;13.914;2023-04-06T15:29:33;99041.50;;;10.99;47.04
18678;BME280;9469;51.114;13.914;2023-04-06T15:34:38;99044.53;;;10.93;47.26
18678;BME280;9469;51.114;13.914;2023-04-06T15:39:48;99036.25;;;10.80;47.48
18678;BME280;9469;51.114;13.914;2023-04-06T15:44:54;99021.31;;;11.12;47.45
18678;BME280;9469;51.114;13.914;2023-04-06T15:50:03;99028.97;;;11.00;47.13
18678;BME280;9469;51.114;13.914;2023-04-06T15:55:12;99034.66;;;10.79;47.40
18678;BME280;9469;51.114;13.914;2023-04-06T16:00:19;99028.06;;;10.91;47.19
18678;BME280;9469;51.114;13.914;2023-04-06T16:05:28;99026.22;;;11.32;46.84
18678;BME280;9469;51.114;13.914;2023-04-06T16:10:49;99033.69;;;10.43;47.01
18678;BME280;9469;51.114;13.914;2023-04-06T16:16:06;99025.50;;;10.86;47.71
18678;BME280;9469;51.114;13.914;2023-04-06T16:21:14;99031.91;;;10.71;47.67
18678;BME280;9469;51.114;13.914;2023-04-06T16:26:22;99021.78;;;10.54;47.90
18678;BME280;9469;51.114;13.914;2023-04-06T16:31:28;99029.84;;;10.81;47.88
18678;BME280;9469;51.114;13.914;2023-04-06T16:36:34;99027.41;;;10.53;48.29
18678;BME280;9469;51.114;13.914;2023-04-06T16:41:44;99026.72;;;10.61;48.39
18678;BME280;9469;51.114;13.914;2023-04-06T16:46:50;99026.88;;;10.69;47.91
18678;BME280;9469;51.114;13.914;2023-04-06T16:51:57;99037.34;;;10.47;48.29
18678;BME280;9469;51.114;13.914;2023-04-06T16:57:08;99030.13;;;9.97;48.98
18678;BME280;9469;51.114;13.914;2023-04-06T17:02:16;99028.25;;;10.16;48.92
18678;BME280;9469;51.114;13.914;2023-04-06T17:07:23;99026.66;;;9.96;49.38
18678;BME280;9469;51.114;13.914;2023-04-06T17:12:38;99028.75;;;9.99;49.81
18678;BME280;9469;51.114;13.914;2023-04-06T17:17:44;99031.53;;;9.71;50.42
18678;BME280;9469;51.114;13.914;2023-04-06T17:22:50;99026.00;;;9.25;51.09
18678;BME280;9469;51.114;13.914;2023-04-06T17:28:00;99043.44;;;9.07;51.80
18678;BME280;9469;51.114;13.914;2023-04-06T17:33:08;99038.38;;;9.11;52.45
18678;BME280;9469;51.114;13.914;2023-04-06T17:38:16;99049.53;;;8.84;52.56
18678;BME280;9469;51.114;13.914;2023-04-06T17:43:24;99043.09;;;8.90;52.92
18678;BME280;9469;51.114;13.914;2023-04-06T17:48:33;99052.78;;;8.76;53.17
18678;BME280;9469;51.114;13.914;2023-04-06T17:53:39;99047.44;;;8.52;53.55
18678;BME280;9469;51.114;13.914;2023-04-06T17:58:48;99053.56;;;8.48;53.62
18678;BME280;9469;51.114;13.914;2023-04-06T18:03:56;99057.66;;;8.30;53.61
18678;BME280;9469;51.114;13.914;2023-04-06T18:09:02;99054.50;;;8.23;54.00
18678;BME280;9469;51.114;13.914;2023-04-06T18:14:10;99064.84;;;8.30;54.90
18678;BME280;9469;51.114;13.914;2023-04-06T18:19:17;99063.81;;;8.21;54.83
18678;BME280;9469;51.114;13.914;2023-04-06T18:24:23;99067.38;;;8.01;55.50
18678;BME280;9469;51.114;13.914;2023-04-06T18:29:46;99072.41;;;8.03;55.39
18678;BME280;9469;51.114;13.914;2023-04-06T18:34:52;99072.22;;;7.89;56.06
18678;BME280;9469;51.114;13.914;2023-04-06T18:39:59;99078.44;;;7.64;57.07
18678;BME280;9469;51.114;13.914;2023-04-06T18:45:09;99084.25;;;7.61;56.41
18678;BME280;9469;51.114;13.914;2023-04-06T18:50:17;99080.84;;;7.56;56.95
18678;BME280;9469;51.114;13.914;2023-04-06T18:55:24;99093.09;;;7.27;58.17
18678;BME280;9469;51.114;13.914;2023-04-06T19:00:34;99077.81;;;7.13;59.92
18678;BME280;9469;51.114;13.914;2023-04-06T19:05:40;99084.53;;;7.60;59.77
18678;BME280;9469;51.114;13.914;2023-04-06T19:10:46;99086.56;;;6.94;60.78
18678;BME280;9469;51.114;13.914;2023-04-06T19:15:56;99089.75;;;6.76;61.64
18678;BME280;9469;51.114;13.914;2023-04-06T19:21:02;99090.25;;;6.93;64.24
18678;BME280;9469;51.114;13.914;2023-04-06T19:26:10;99087.63;;;6.88;64.19
18678;BME280;9469;51.114;13.914;2023-04-06T19:31:21;99090.81;;;6.80;65.99
18678;BME280;9469;51.114;13.914;2023-04-06T19:36:30;99078.91;;;6.77;67.45
18678;BME280;9469;51.114;13.914;2023-04-06T19:41:38;99090.22;;;7.13;66.29
18678;BME280;9469;51.114;13.914;2023-04-06T19:46:47;99082.88;;;6.70;67.05
18678;BME280;9469;51.114;13.914;2023-04-06T19:51:54;99089.50;;;6.37;68.49
18678;BME280;9469;51.114;13.914;2023-04-06T19:57:02;99087.66;;;6.53;68.54
18678;BME280;9469;51.114;13.914;2023-04-06T20:02:13;99076.00;;;6.59;68.85
18678;BME280;9469;51.114;13.914;2023-04-06T20:07:19;99086.03;;;6.36;68.67
18678;BME280;9469;51.114;13.914;2023-04-06T20:12:25;99082.84;;;5.99;69.17
18678;BME280;9469;51.114;13.914;2023-04-06T20:17:35;99094.97;;;6.00;70.44
18678;BME280;9469;51.114;13.914;2023-04-06T20:22:41;99102.41;;;6.23;70.78
18678;BME280;9469;51.114;13.914;2023-04-06T20:27:52;99084.69;;;6.04;70.06
18678;BME280;9469;51.114;13.914;2023-04-06T20:33:01;99096.06;;;5.42;73.15
18678;BME280;9469;51.114;13.914;2023-04-06T20:38:08;99085.44;;;5.32;74.10
18678;BME280;9469;51.114;13.914;2023-04-06T20:43:15;99083.00;;;5.16;74.90
18678;BME280;9469;51.114;13.914;2023-04-06T20:48:46;99089.31;;;5.15;74.62
18678;BME280;9469;51.114;13.914;2023-04-06T20:53:54;99093.44;;;5.00;74.44
18678;BME280;9469;51.114;13.914;2023-04-06T20:59:05;99088.13;;;4.95;74.54
18678;BME280;9469;51.114;13.914;2023-04-06T21:04:14;99093.97;;;4.61;75.29
18678;BME280;9469;51.114;13.914;2023-04-06T21:09:24;99092.25;;;4.45;76.02
18678;BME280;9469;51.114;13.914;2023-04-06T21:14:34;99096.72;;;4.44;76.47
18678;BME280;9469;51.114;13.914;2023-04-06T21:19:47;99087.88;;;4.28;76.51
18678;BME280;9469;51.114;13.914;2023-04-06T21:25:03;99085.59;;;4.10;78.41
18678;BME280;9469;51.114;13.914;2023-04-06T21:30:11;99092.94;;;4.08;79.74
18678;BME280;9469;51.114;13.914;2023-04-06T21:35:24;99093.00;;;3.65;80.68
18678;BME280;9469;51.114;13.914;2023-04-06T21:40:30;99093.56;;;3.67;81.56
18678;BME280;9469;51.114;13.914;2023-04-06T21:45:37;99082.38;;;3.55;82.55
18678;BME280;9469;51.114;13.914;2023-04-06T21:50:46;99080.59;;;3.60;83.79
18678;BME280;9469;51.114;13.914;2023-04-06T21:55:52;99073.38;;;3.51;83.21
18678;BME280;9469;51.114;13.914;2023-04-06T22:00:59;99077.28;;;3.48;83.99
18678;BME280;9469;51.114;13.914;2023-04-06T22:06:08;99063.34;;;3.48;85.56
18678;BME280;9469;51.114;13.914;2023-04-06T22:11:14;99062.41;;;3.16;85.52
18678;BME280;9469;51.114;13.914;2023-04-06T22:16:21;99067.75;;;2.82;85.96
18678;BME280;9469;51.114;13.914;2023-04-06T22:21:32;99068.84;;;3.25;83.38
18678;BME280;9469;51.114;13.914;2023-04-06T22:26:41;99062.66;;;3.14;83.52
18678;BME280;9469;51.114;13.914;2023-04-06T22:31:47;99057.63;;;2.91;83.57
18678;BME280;9469;51.114;13.914;2023-04-06T22:36:57;99049.38;;;2.66;83.61
18678;BME280;9469;51.114;13.914;2023-04-06T22:42:04;99055.47;;;2.88;83.35
18678;BME280;9469;51.114;13.914;2023-04-06T22:47:10;99052.97;;;2.98;81.82
18678;BME280;9469;51.114;13.914;2023-04-06T22:52:19;99054.81;;;2.98;82.04
18678;BME280;9469;51.114;13.914;2023-04-06T22:57:24;99056.13;;;2.62;83.56
18678;BME280;9469;51.114;13.914;2023-04-06T23:02:31;99044.81;;;2.45;83.80
18678;BME280;9469;51.114;13.914;2023-04-06T23:07:40;99050.09;;;2.28;85.47
18678;BME280;9469;51.114;13.914;2023-04-06T23:12:46;99043.72;;;2.41;85.13
18678;BME280;9469;51.114;13.914;2023-04-06T23:17:52;99050.09;;;2.28;85.23
18678;BME280;9469;51.114;13.914;2023-04-06T23:23:01;99040.38;;;2.29;86.34
18678;BME280;9469;51.114;13.914;2023-04-06T23:28:07;99043.41;;;2.37;89.66
18678;BME280;9469;51.114;13.914;2023-04-06T23:33:13;99033.31;;;2.12;91.42
18678;BME280;9469;51.114;13.914;2023-04-06T23:38:22;99040.09;;;1.80;93.29
18678;BME280;9469;51.114;13.914;2023-04-06T23:43:28;99037.56;;;1.85;92.51
18678;BME280;9469;51.114;13.914;2023-04-06T23:48:43;99025.91;;;2.09;92.59
18678;BME280;9469;51.114;13.914;2023-04-06T23:53:52;99033.91;;;2.03;91.93
18678;BME280;9469;51.114;13.914;2023-04-06T23:59:00;99029.94;;;1.72;93.66
